createdAt,value
2022-09-28T00:02:13.451Z,1.58
2022-09-28T00:04:40.218Z,1.20
2022-09-28T00:07:06.739Z,1.00
2022-09-28T00:09:33.771Z,1.15
2022-09-28T00:12:00.429Z,1.02
2022-09-28T00:14:27.675Z,1.30
2022-09-28T00:16:54.528Z,0.82
2022-09-28T00:19:21.080Z,1.08
2022-09-28T00:21:48.040Z,1.30
2022-09-28T00:24:15.757Z,0.80
2022-09-28T00:26:45.266Z,1.10
2022-09-28T00:29:34.437Z,1.00
2022-09-28T00:32:04.017Z,1.13
2022-09-28T00:34:36.155Z,1.10
2022-09-28T00:37:04.412Z,1.07
2022-09-28T00:39:35.929Z,1.05
2022-09-28T00:42:03.333Z,0.82
2022-09-28T00:44:42.835Z,0.60
2022-09-28T00:47:34.204Z,0.85
2022-09-28T00:50:10.737Z,0.93
2022-09-28T00:53:09.526Z,1.02
2022-09-28T00:55:36.011Z,0.90
2022-09-28T00:58:03.641Z,1.10
2022-09-28T01:00:30.250Z,0.77
2022-09-28T01:02:57.113Z,0.90
2022-09-28T01:05:24.292Z,0.93
2022-09-28T01:07:50.808Z,1.17
2022-09-28T01:10:17.383Z,1.40
2022-09-28T01:12:43.915Z,0.95
2022-09-28T01:15:10.523Z,1.13
2022-09-28T01:17:57.870Z,1.00
2022-09-28T01:20:47.350Z,1.10
2022-09-28T01:23:54.796Z,0.90
2022-09-28T01:26:30.415Z,0.80
2022-09-28T01:29:06.634Z,0.98
2022-09-28T01:31:33.694Z,0.98
2022-09-28T01:34:13.055Z,0.82
2022-09-28T01:36:46.488Z,1.38
2022-09-28T01:39:15.644Z,0.90
2022-09-28T01:41:42.611Z,1.33
2022-09-28T01:44:11.099Z,1.25
2022-09-28T01:46:44.669Z,1.55
2022-09-28T01:49:35.829Z,1.15
2022-09-28T01:52:22.031Z,1.02
2022-09-28T01:54:54.617Z,0.77
2022-09-28T01:57:25.219Z,0.77
2022-09-28T02:00:01.876Z,1.00
2022-09-28T02:02:41.209Z,0.90
2022-09-28T02:05:08.691Z,1.10
2022-09-28T02:07:39.749Z,1.27
2022-09-28T02:10:19.461Z,1.15
2022-09-28T02:12:52.610Z,1.20
2022-09-28T02:15:43.375Z,1.08
2022-09-28T02:18:09.941Z,0.95
2022-09-28T02:20:36.736Z,0.80
2022-09-28T02:23:03.309Z,1.15
2022-09-28T02:25:47.432Z,1.23
2022-09-28T02:28:14.256Z,0.95
2022-09-28T02:30:41.875Z,1.50
2022-09-28T02:33:45.955Z,1.10
2022-09-28T02:36:12.589Z,0.90
2022-09-28T02:38:39.208Z,1.30
2022-09-28T02:41:27.261Z,1.27
2022-09-28T02:44:15.026Z,1.10
2022-09-28T02:46:50.544Z,1.55
2022-09-28T02:49:30.013Z,1.30
2022-09-28T02:52:02.443Z,1.70
2022-09-28T02:54:47.715Z,2.00
2022-09-28T02:57:32.481Z,1.48
2022-09-28T03:00:08.873Z,1.30
2022-09-28T03:02:54.177Z,1.10
2022-09-28T03:06:03.963Z,1.27
2022-09-28T03:08:41.225Z,1.63
2022-09-28T03:11:09.886Z,1.02
2022-09-28T03:13:36.533Z,1.30
2022-09-28T03:16:09.202Z,1.45
2022-09-28T03:18:35.952Z,1.20
2022-09-28T03:21:02.791Z,1.10
2022-09-28T03:23:29.386Z,0.98
2022-09-28T03:25:56.175Z,0.90
2022-09-28T03:28:23.384Z,1.15
2022-09-28T03:30:50.277Z,1.10
2022-09-28T03:33:16.873Z,0.98
2022-09-28T03:35:46.738Z,1.33
2022-09-28T03:38:13.315Z,1.13
2022-09-28T03:40:40.462Z,1.20
2022-09-28T03:43:07.118Z,1.20
2022-09-28T03:45:33.712Z,1.30
2022-09-28T03:48:00.412Z,0.90
2022-09-28T03:50:27.039Z,2.10
2022-09-28T03:52:53.599Z,1.05
2022-09-28T03:55:20.191Z,0.90
2022-09-28T03:57:54.023Z,0.85
2022-09-28T04:00:20.671Z,0.50
2022-09-28T04:02:47.223Z,0.60
2022-09-28T04:05:13.851Z,0.65
2022-09-28T04:07:40.437Z,0.50
2022-09-28T04:10:07.567Z,0.80
2022-09-28T04:12:34.131Z,0.60
2022-09-28T04:15:00.723Z,0.63
2022-09-28T04:17:27.310Z,0.73
2022-09-28T04:19:53.892Z,0.63
2022-09-28T04:22:20.456Z,0.85
2022-09-28T04:24:47.102Z,0.65
2022-09-28T04:27:32.170Z,0.70
2022-09-28T04:29:58.757Z,0.95
2022-09-28T04:32:25.374Z,0.77
2022-09-28T04:34:51.987Z,1.23
2022-09-28T04:37:18.567Z,1.00
2022-09-28T04:39:48.403Z,0.70
2022-09-28T04:42:15.980Z,0.93
2022-09-28T04:44:42.687Z,0.80
2022-09-28T04:47:09.244Z,1.15
2022-09-28T04:49:37.169Z,1.40
2022-09-28T04:52:04.307Z,1.10
2022-09-28T04:54:30.899Z,1.13
2022-09-28T04:56:58.052Z,1.23
2022-09-28T04:59:24.766Z,1.30
2022-09-28T05:01:51.362Z,1.30
2022-09-28T05:04:21.269Z,1.08
2022-09-28T05:06:50.207Z,0.90
2022-09-28T05:09:16.855Z,0.55
2022-09-28T05:11:43.497Z,0.90
2022-09-28T05:14:11.583Z,1.05
2022-09-28T05:16:38.232Z,1.58
2022-09-28T05:19:06.372Z,0.90
2022-09-28T05:21:33.766Z,0.80
2022-09-28T05:24:00.472Z,0.90
2022-09-28T05:26:27.063Z,1.42
2022-09-28T05:28:53.952Z,1.25
2022-09-28T05:31:20.632Z,0.90
2022-09-28T05:33:47.248Z,1.17
2022-09-28T05:36:13.874Z,1.05
2022-09-28T05:38:40.483Z,0.93
2022-09-28T05:41:07.195Z,0.90
2022-09-28T05:43:34.176Z,0.90
2022-09-28T05:46:00.828Z,1.50
2022-09-28T05:48:28.614Z,1.30
2022-09-28T05:50:55.479Z,2.63
2022-09-28T05:53:22.058Z,1.38
2022-09-28T05:55:48.708Z,1.23
2022-09-28T05:58:15.299Z,1.10
2022-09-28T06:00:41.908Z,0.70
2022-09-28T06:03:11.718Z,0.82
2022-09-28T06:05:39.540Z,0.98
2022-09-28T06:08:08.317Z,1.10
2022-09-28T06:10:35.275Z,1.20
2022-09-28T06:13:02.289Z,0.90
2022-09-28T06:15:30.957Z,1.30
2022-09-28T06:18:02.261Z,1.23
2022-09-28T06:20:31.257Z,1.27
2022-09-28T06:22:57.819Z,1.52
2022-09-28T06:25:27.953Z,1.50
2022-09-28T06:27:55.418Z,2.10
2022-09-28T06:30:22.723Z,2.33
2022-09-28T06:32:52.772Z,3.20
2022-09-28T06:35:19.443Z,3.58
2022-09-28T06:37:46.926Z,3.53
2022-09-28T06:40:13.678Z,3.25
2022-09-28T06:42:40.231Z,2.55
2022-09-28T06:45:08.027Z,3.03
2022-09-28T06:47:35.314Z,2.35
2022-09-28T06:50:01.904Z,2.20
2022-09-28T06:52:28.516Z,1.90
2022-09-28T06:54:55.096Z,2.05
2022-09-28T06:57:21.749Z,2.42
2022-09-28T06:59:48.335Z,1.98
2022-09-28T07:02:14.988Z,2.42
2022-09-28T07:04:45.133Z,2.97
2022-09-28T07:07:11.907Z,3.00
2022-09-28T07:09:43.703Z,2.65
2022-09-28T07:12:13.437Z,3.80
2022-09-28T07:14:47.859Z,3.97
2022-09-28T07:17:15.359Z,3.58
2022-09-28T07:19:42.155Z,3.60
2022-09-28T07:22:08.900Z,2.65
2022-09-28T07:24:38.921Z,2.50
2022-09-28T07:27:05.826Z,2.50
2022-09-28T07:29:33.288Z,2.10
2022-09-28T07:32:00.005Z,4.00
2022-09-28T07:34:27.173Z,2.20
2022-09-28T07:36:57.425Z,1.98
2022-09-28T07:39:24.308Z,2.22
2022-09-28T07:41:51.002Z,2.53
2022-09-28T07:44:19.164Z,2.05
2022-09-28T07:46:46.673Z,2.28
2022-09-28T07:49:15.616Z,2.60
2022-09-28T07:51:44.812Z,2.95
2022-09-28T07:54:11.391Z,2.70
2022-09-28T07:56:37.976Z,2.33
2022-09-28T07:59:04.913Z,2.70
2022-09-28T08:01:31.614Z,3.60
2022-09-28T08:03:58.212Z,2.80
2022-09-28T08:06:24.782Z,4.25
2022-09-28T08:08:52.943Z,3.80
2022-09-28T08:11:19.530Z,2.83
2022-09-28T08:13:46.840Z,2.60
2022-09-28T08:16:13.754Z,3.83
2022-09-28T08:18:40.527Z,3.47
2022-09-28T08:21:25.380Z,2.50
2022-09-28T08:23:52.992Z,2.95
2022-09-28T08:26:19.615Z,3.38
2022-09-28T08:28:47.931Z,3.50
2022-09-28T08:31:14.679Z,3.25
2022-09-28T08:33:42.213Z,3.45
2022-09-28T08:36:09.332Z,2.70
2022-09-28T08:38:35.936Z,2.80
2022-09-28T08:41:20.786Z,2.33
2022-09-28T08:44:02.740Z,2.45
2022-09-28T08:46:35.753Z,3.08
2022-09-28T08:52:06.486Z,2.70
2022-09-28T08:54:56.264Z,2.88
2022-09-28T08:57:49.594Z,3.63
2022-09-28T09:00:30.332Z,2.47
2022-09-28T09:02:56.914Z,1.80
2022-09-28T09:05:27.555Z,1.83
2022-09-28T09:08:01.055Z,1.80
2022-09-28T09:10:46.035Z,2.40
2022-09-28T09:13:33.974Z,1.80
2022-09-28T09:16:12.939Z,2.97
2022-09-28T09:18:48.365Z,2.33
2022-09-28T09:21:44.205Z,2.72
2022-09-28T09:24:13.847Z,2.08
2022-09-28T09:26:40.851Z,2.10
2022-09-28T09:29:18.143Z,1.67
2022-09-28T09:31:50.787Z,1.95
2022-09-28T09:34:38.091Z,1.55
2022-09-28T09:37:24.988Z,1.70
2022-09-28T09:39:57.566Z,1.95
2022-09-28T09:42:35.552Z,1.48
2022-09-28T09:45:28.751Z,1.45
2022-09-28T09:48:04.047Z,1.25
2022-09-28T09:50:34.253Z,1.40
2022-09-28T09:53:37.667Z,1.70
2022-09-28T09:56:15.863Z,1.65
2022-09-28T09:58:51.695Z,1.73
2022-09-28T10:01:20.544Z,1.70
2022-09-28T10:03:48.355Z,1.45
2022-09-28T10:06:21.182Z,1.40
2022-09-28T10:08:58.744Z,1.70
2022-09-28T10:11:31.808Z,1.52
2022-09-28T10:16:25.145Z,1.60
2022-09-28T10:18:51.766Z,1.85
2022-09-28T10:21:20.620Z,1.60
2022-09-28T10:23:48.151Z,1.40
2022-09-28T10:26:28.463Z,1.60
2022-09-28T10:29:03.769Z,2.58
2022-09-28T10:31:38.054Z,1.58
2022-09-28T10:34:05.592Z,2.00
2022-09-28T10:36:38.383Z,1.83
2022-09-28T10:39:06.167Z,2.03
2022-09-28T10:41:32.864Z,2.25
2022-09-28T10:44:08.943Z,2.70
2022-09-28T10:46:35.651Z,2.15
2022-09-28T10:49:07.526Z,2.08
2022-09-28T10:51:44.168Z,1.50
2022-09-28T10:54:21.503Z,1.20
2022-09-28T10:56:49.466Z,1.30
2022-09-28T10:59:31.187Z,1.65
2022-09-28T11:02:12.862Z,3.78
2022-09-28T11:04:41.543Z,3.72
2022-09-28T11:07:24.888Z,4.75
2022-09-28T11:09:51.832Z,2.53
2022-09-28T11:12:26.383Z,2.72
2022-09-28T11:15:00.998Z,1.92
2022-09-28T11:17:31.433Z,1.65
2022-09-28T11:20:24.706Z,1.85
2022-09-28T11:23:15.730Z,1.30
2022-09-28T11:25:42.474Z,1.20
2022-09-28T11:28:18.620Z,2.33
2022-09-28T11:30:48.555Z,1.25
2022-09-28T11:33:25.339Z,1.25
2022-09-28T11:36:13.336Z,1.50
2022-09-28T11:39:09.049Z,1.98
2022-09-28T11:41:44.305Z,1.70
2022-09-28T11:44:39.284Z,2.38
2022-09-28T11:47:30.811Z,1.13
2022-09-28T11:50:44.847Z,1.33
2022-09-28T11:53:11.412Z,1.90
2022-09-28T11:55:58.865Z,1.73
2022-09-28T11:58:33.829Z,1.70
2022-09-28T12:01:19.285Z,0.80
2022-09-28T12:03:50.783Z,1.08
2022-09-28T12:06:24.571Z,0.80
2022-09-28T12:08:54.241Z,1.25
2022-09-28T12:11:24.472Z,1.75
2022-09-28T12:13:52.560Z,1.10
2022-09-28T12:16:53.568Z,1.08
2022-09-28T12:19:21.107Z,1.13
2022-09-28T12:21:53.015Z,1.75
2022-09-28T12:24:20.606Z,1.58
2022-09-28T12:27:12.102Z,1.48
2022-09-28T12:30:01.624Z,1.17
2022-09-28T12:32:38.217Z,1.38
2022-09-28T12:35:49.802Z,0.90
2022-09-28T12:38:22.086Z,1.60
2022-09-28T12:40:51.680Z,1.67
2022-09-28T12:43:28.972Z,1.50
2022-09-28T12:46:18.200Z,1.65
2022-09-28T12:51:54.716Z,1.63
2022-09-28T12:54:46.842Z,1.00
2022-09-28T12:57:34.937Z,1.58
2022-09-28T13:00:12.578Z,1.58
2022-09-28T13:03:05.417Z,1.30
2022-09-28T13:05:40.963Z,0.88
2022-09-28T13:08:19.430Z,1.10
2022-09-28T13:11:05.557Z,1.10
2022-09-28T13:13:40.445Z,0.80
2022-09-28T13:16:21.820Z,1.40
2022-09-28T13:19:26.497Z,0.70
2022-09-28T13:21:59.988Z,0.98
2022-09-28T13:24:33.497Z,0.90
2022-09-28T13:27:07.134Z,0.90
2022-09-28T13:32:05.527Z,1.20
2022-09-28T13:34:33.891Z,1.20
2022-09-28T13:37:25.721Z,1.23
2022-09-28T13:39:59.575Z,0.77
2022-09-28T13:42:35.179Z,0.73
2022-09-28T13:45:22.700Z,0.50
2022-09-28T13:47:52.470Z,0.60
2022-09-28T13:50:46.832Z,0.85
2022-09-28T13:53:34.878Z,0.90
2022-09-28T13:56:20.346Z,1.30
2022-09-28T13:59:22.280Z,0.85
2022-09-28T14:02:18.617Z,1.50
2022-09-28T14:05:22.776Z,1.52
2022-09-28T14:08:08.757Z,0.77
2022-09-28T14:10:54.316Z,1.55
2022-09-28T14:13:42.740Z,0.98
2022-09-28T14:16:33.573Z,0.95
2022-09-28T14:19:13.072Z,0.55
2022-09-28T14:22:04.661Z,0.75
2022-09-28T14:24:34.005Z,0.70
2022-09-28T14:27:39.065Z,1.10
2022-09-28T14:30:12.830Z,0.55
2022-09-28T14:32:48.592Z,1.30
2022-09-28T14:35:24.496Z,1.02
2022-09-28T14:38:09.997Z,1.30
2022-09-28T14:41:11.621Z,1.60
2022-09-28T14:43:44.426Z,0.93
2022-09-28T14:46:12.272Z,0.80
2022-09-28T14:48:48.132Z,0.80
2022-09-28T14:51:27.160Z,1.10
2022-09-28T14:53:55.132Z,1.48
2022-09-28T14:56:21.882Z,0.88
2022-09-28T14:58:53.593Z,0.80
2022-09-28T15:01:21.425Z,1.38
2022-09-28T15:03:51.516Z,1.20
2022-09-28T15:06:21.187Z,0.90
2022-09-28T15:08:47.790Z,0.80
2022-09-28T15:11:18.367Z,0.68
2022-09-28T15:13:45.072Z,0.80
2022-09-28T15:16:13.674Z,1.42
2022-09-28T15:19:03.618Z,2.10
2022-09-28T15:21:38.155Z,1.02
2022-09-28T15:24:44.985Z,1.52
2022-09-28T15:27:15.933Z,1.13
2022-09-28T15:29:54.332Z,1.00
2022-09-28T15:32:28.637Z,0.80
2022-09-28T15:34:57.092Z,0.90
2022-09-28T15:37:40.306Z,0.70
2022-09-28T15:40:12.949Z,0.70
2022-09-28T15:42:40.529Z,1.00
2022-09-28T15:45:24.956Z,1.40
2022-09-28T15:47:56.336Z,1.33
2022-09-28T15:50:25.276Z,1.00
2022-09-28T15:53:00.675Z,0.85
2022-09-28T15:55:43.956Z,0.60
2022-09-28T16:00:42.701Z,1.00
2022-09-28T16:03:09.357Z,1.13
2022-09-28T16:05:53.202Z,1.30
2022-09-28T16:08:39.483Z,1.13
2022-09-28T16:11:25.965Z,1.20
2022-09-28T16:14:17.529Z,0.80
2022-09-28T16:16:49.404Z,0.80
2022-09-28T16:19:24.153Z,1.10
2022-09-28T16:21:57.963Z,1.50
2022-09-28T16:24:30.671Z,2.25
2022-09-28T16:27:04.703Z,1.00
2022-09-28T16:29:42.141Z,1.08
2022-09-28T16:32:26.697Z,1.23
2022-09-28T16:35:40.789Z,1.67
2022-09-28T16:38:14.603Z,1.73
2022-09-28T16:40:42.656Z,2.05
2022-09-28T16:43:13.663Z,1.90
2022-09-28T16:45:40.249Z,2.03
2022-09-28T16:48:06.864Z,1.25
2022-09-28T16:50:33.440Z,2.28
2022-09-28T16:53:35.255Z,2.30
2022-09-28T16:56:03.268Z,2.83
2022-09-28T16:58:31.375Z,2.05
2022-09-28T17:00:58.937Z,2.53
2022-09-28T17:03:26.102Z,2.83
2022-09-28T17:05:52.976Z,3.80
2022-09-28T17:08:22.273Z,3.03
2022-09-28T17:11:14.026Z,2.95
2022-09-28T17:13:41.570Z,3.85
2022-09-28T17:16:21.039Z,3.15
2022-09-28T17:18:51.880Z,2.70
2022-09-28T17:21:19.876Z,2.50
2022-09-28T17:23:48.005Z,2.88
2022-09-28T17:26:20.039Z,3.08
2022-09-28T17:28:46.641Z,3.35
2022-09-28T17:31:16.761Z,3.22
2022-09-28T17:33:43.634Z,3.38
2022-09-28T17:36:13.782Z,3.55
2022-09-28T17:38:42.599Z,2.90
2022-09-28T17:41:18.073Z,2.88
2022-09-28T17:43:46.858Z,3.03
2022-09-28T17:46:33.576Z,2.38
2022-09-28T17:49:04.489Z,2.10
2022-09-28T17:51:38.745Z,2.30
2022-09-28T17:54:07.630Z,2.60
2022-09-28T17:56:34.808Z,3.72
2022-09-28T17:59:04.966Z,2.92
2022-09-28T18:01:34.303Z,2.97
2022-09-28T18:04:02.938Z,3.20
2022-09-28T18:06:29.578Z,3.17
2022-09-28T18:08:56.179Z,3.35
2022-09-28T18:11:22.998Z,4.10
2022-09-28T18:13:49.610Z,4.30
2022-09-28T18:16:16.293Z,6.20
2022-09-28T18:18:43.005Z,6.45
2022-09-28T18:21:09.678Z,6.50
2022-09-28T18:23:39.763Z,5.03
2022-09-28T18:26:13.513Z,4.40
2022-09-28T18:28:40.224Z,3.72
2022-09-28T18:31:11.186Z,3.85
2022-09-28T18:33:38.087Z,3.88
2022-09-28T18:36:05.473Z,3.17
2022-09-28T18:38:32.449Z,2.95
2022-09-28T18:41:07.833Z,3.42
2022-09-28T18:43:36.428Z,3.25
2022-09-28T18:46:10.609Z,3.60
2022-09-28T18:48:44.010Z,4.03
2022-09-28T18:51:11.509Z,4.75
2022-09-28T18:53:38.729Z,3.28
2022-09-28T18:56:10.310Z,3.45
2022-09-28T18:58:38.285Z,3.30
2022-09-28T19:01:28.960Z,3.80
2022-09-28T19:03:58.120Z,4.30
2022-09-28T19:06:24.727Z,5.38
2022-09-28T19:08:52.865Z,4.57
2022-09-28T19:11:19.587Z,4.22
2022-09-28T19:13:46.175Z,3.35
2022-09-28T19:16:18.076Z,3.13
2022-09-28T19:18:44.982Z,3.38
2022-09-28T19:21:13.037Z,3.33
2022-09-28T19:23:40.154Z,3.15
2022-09-28T19:26:09.189Z,3.13
2022-09-28T19:28:35.875Z,3.10
2022-09-28T19:31:04.626Z,3.72
2022-09-28T19:33:31.272Z,3.58
2022-09-28T19:36:02.865Z,3.50
2022-09-28T19:38:30.560Z,3.40
2022-09-28T19:40:57.773Z,3.40
2022-09-28T19:43:24.908Z,3.60
2022-09-28T19:45:52.622Z,3.70
2022-09-28T19:48:21.981Z,3.83
2022-09-28T19:50:56.407Z,3.53
2022-09-28T19:53:26.816Z,3.65
2022-09-28T19:55:54.774Z,3.50
2022-09-28T19:58:26.023Z,3.00
2022-09-28T20:00:52.608Z,3.08
2022-09-28T20:03:19.187Z,3.42
2022-09-28T20:05:46.483Z,2.95
2022-09-28T20:08:16.794Z,3.63
2022-09-28T20:10:54.634Z,3.00
2022-09-28T20:13:21.712Z,3.00
2022-09-28T20:15:50.826Z,3.33
2022-09-28T20:18:19.456Z,2.67
2022-09-28T20:20:46.423Z,3.20
2022-09-28T20:23:13.445Z,3.40
2022-09-28T20:25:40.424Z,3.50
2022-09-28T20:28:07.492Z,3.60
2022-09-28T20:30:34.326Z,3.38
2022-09-28T20:33:01.243Z,3.45
2022-09-28T20:35:33.074Z,3.28
2022-09-28T20:38:09.358Z,3.60
2022-09-28T20:40:37.725Z,3.30
2022-09-28T20:43:07.546Z,3.55
2022-09-28T20:45:39.627Z,3.85
2022-09-28T20:48:06.568Z,3.35
2022-09-28T20:50:33.972Z,3.10
2022-09-28T20:53:01.250Z,3.50
2022-09-28T20:55:27.891Z,2.75
2022-09-28T20:57:54.500Z,3.40
2022-09-28T21:00:21.285Z,3.25
2022-09-28T21:02:52.446Z,2.58
2022-09-28T21:05:19.053Z,3.13
2022-09-28T21:07:45.615Z,3.15
2022-09-28T21:10:12.298Z,2.70
2022-09-28T21:12:39.136Z,2.97
2022-09-28T21:15:06.293Z,3.28
2022-09-28T21:17:33.012Z,2.90
2022-09-28T21:19:59.614Z,3.10
2022-09-28T21:22:26.182Z,2.53
2022-09-28T21:24:55.695Z,2.80
2022-09-28T21:27:22.275Z,3.35
2022-09-28T21:29:48.864Z,2.67
2022-09-28T21:32:15.503Z,2.50
2022-09-28T21:34:42.119Z,2.20
2022-09-28T21:37:09.125Z,1.92
2022-09-28T21:39:35.888Z,2.58
2022-09-28T21:42:02.481Z,2.47
2022-09-28T21:44:29.096Z,2.30
2022-09-28T21:46:55.665Z,2.50
2022-09-28T21:49:22.581Z,2.38
2022-09-28T21:51:49.160Z,2.95
2022-09-28T21:54:15.820Z,2.17
2022-09-28T21:56:42.416Z,3.13
2022-09-28T21:59:09.005Z,2.55
2022-09-28T22:01:35.608Z,3.30
2022-09-28T22:04:02.252Z,3.10
2022-09-28T22:06:28.844Z,3.03
2022-09-28T22:08:55.521Z,2.88
2022-09-28T22:11:23.869Z,4.35
2022-09-28T22:13:55.214Z,3.60
2022-09-28T22:16:24.190Z,3.50
2022-09-28T22:18:50.947Z,3.90
2022-09-28T22:21:20.078Z,4.82
2022-09-28T22:23:46.891Z,3.45
2022-09-28T22:26:19.491Z,3.55
2022-09-28T22:28:57.213Z,3.90
2022-09-28T22:31:29.277Z,3.92
2022-09-28T22:33:56.307Z,3.53
2022-09-28T22:36:22.995Z,3.58
2022-09-28T22:38:49.888Z,4.07
2022-09-28T22:41:18.754Z,3.45
2022-09-28T22:43:45.330Z,4.07
2022-09-28T22:46:13.833Z,3.47
2022-09-28T22:48:42.409Z,3.75
2022-09-28T22:51:09.048Z,4.00
2022-09-28T22:53:35.815Z,4.30
2022-09-28T22:56:05.626Z,3.75
2022-09-28T22:58:33.258Z,4.03
2022-09-28T23:01:17.305Z,4.22
2022-09-28T23:03:44.936Z,3.83
2022-09-28T23:06:13.194Z,4.30
2022-09-28T23:08:40.100Z,3.67
2022-09-28T23:11:06.742Z,3.83
2022-09-28T23:13:33.456Z,4.07
2022-09-28T23:16:12.535Z,4.07
2022-09-28T23:18:42.255Z,4.53
2022-09-28T23:21:15.411Z,4.53
2022-09-28T23:26:23.680Z,4.97
2022-09-28T23:28:50.542Z,4.57
2022-09-28T23:31:25.228Z,5.13
2022-09-28T23:33:52.015Z,5.13
2022-09-28T23:36:18.668Z,5.20
2022-09-28T23:38:45.344Z,5.57
2022-09-28T23:41:11.936Z,5.00
2022-09-28T23:43:38.586Z,5.05
2022-09-28T23:46:05.444Z,5.70
2022-09-28T23:48:32.264Z,5.50
2022-09-28T23:50:59.022Z,4.97
2022-09-28T23:53:25.769Z,4.55
2022-09-28T23:55:53.006Z,4.38
2022-09-28T23:58:19.600Z,3.55
